sensor_id;sensor_type;location;lat;lon;timestamp;P1;durP1;ratioP1;P2;durP2;ratioP2
26335;SDS011;14047;50.936;4.654;2022-09-27T00:02:13;5.07;;;1.13;;
26335;SDS011;14047;50.936;4.654;2022-09-27T00:04:39;5.53;;;1.13;;
26335;SDS011;14047;50.936;4.654;2022-09-27T00:07:04;6.72;;;1.95;;
26335;SDS011;14047;50.936;4.654;2022-09-27T00:09:31;3.35;;;1.40;;
26335;SDS011;14047;50.936;4.654;2022-09-27T00:11:57;7.75;;;1.35;;
26335;SDS011;14047;50.936;4.654;2022-09-27T00:14:22;11.65;;;1.20;;
26335;SDS011;14047;50.936;4.654;2022-09-27T00:16:48;7.65;;;0.90;;
26335;SDS011;14047;50.936;4.654;2022-09-27T00:19:15;6.10;;;1.08;;
26335;SDS011;14047;50.936;4.654;2022-09-27T00:21:42;3.58;;;1.00;;
26335;SDS011;14047;50.936;4.654;2022-09-27T00:24:12;5.15;;;1.17;;
26335;SDS011;14047;50.936;4.654;2022-09-27T00:26:40;4.80;;;1.08;;
26335;SDS011;14047;50.936;4.654;2022-09-27T00:29:07;14.60;;;1.20;;
26335;SDS011;14047;50.936;4.654;2022-09-27T00:31:34;8.43;;;1.60;;
26335;SDS011;14047;50.936;4.654;2022-09-27T00:34:02;6.15;;;1.83;;
26335;SDS011;14047;50.936;4.654;2022-09-27T00:36:29;8.90;;;1.55;;
26335;SDS011;14047;50.936;4.654;2022-09-27T00:38:56;10.52;;;2.13;;
26335;SDS011;14047;50.936;4.654;2022-09-27T00:41:33;7.90;;;2.20;;
26335;SDS011;14047;50.936;4.654;2022-09-27T00:44:01;6.85;;;1.70;;
26335;SDS011;14047;50.936;4.654;2022-09-27T00:46:47;14.02;;;2.47;;
26335;SDS011;14047;50.936;4.654;2022-09-27T00:49:31;8.75;;;1.88;;
26335;SDS011;14047;50.936;4.654;2022-09-27T00:52:07;9.70;;;2.00;;
26335;SDS011;14047;50.936;4.654;2022-09-27T00:54:37;11.65;;;2.55;;
26335;SDS011;14047;50.936;4.654;2022-09-27T00:57:06;11.32;;;3.75;;
26335;SDS011;14047;50.936;4.654;2022-09-27T00:59:34;9.73;;;1.92;;
26335;SDS011;14047;50.936;4.654;2022-09-27T01:02:11;5.68;;;1.35;;
26335;SDS011;14047;50.936;4.654;2022-09-27T01:04:37;3.38;;;0.95;;
26335;SDS011;14047;50.936;4.654;2022-09-27T01:07:03;5.85;;;1.50;;
26335;SDS011;14047;50.936;4.654;2022-09-27T01:09:29;6.90;;;1.20;;
26335;SDS011;14047;50.936;4.654;2022-09-27T01:26:27;6.45;;;1.05;;
26335;SDS011;14047;50.936;4.654;2022-09-27T01:31:23;8.93;;;1.23;;
26335;SDS011;14047;50.936;4.654;2022-09-27T01:34:04;7.25;;;1.40;;
26335;SDS011;14047;50.936;4.654;2022-09-27T01:37:02;5.93;;;1.10;;
26335;SDS011;14047;50.936;4.654;2022-09-27T01:50:23;6.35;;;0.73;;
26335;SDS011;14047;50.936;4.654;2022-09-27T01:53:23;4.85;;;1.33;;
26335;SDS011;14047;50.936;4.654;2022-09-27T01:55:50;3.45;;;0.35;;
26335;SDS011;14047;50.936;4.654;2022-09-27T01:58:24;2.75;;;0.80;;
26335;SDS011;14047;50.936;4.654;2022-09-27T02:00:54;3.05;;;0.60;;
26335;SDS011;14047;50.936;4.654;2022-09-27T02:03:43;2.33;;;0.50;;
26335;SDS011;14047;50.936;4.654;2022-09-27T02:06:21;1.10;;;0.45;;
26335;SDS011;14047;50.936;4.654;2022-09-27T02:11:26;1.00;;;0.52;;
26335;SDS011;14047;50.936;4.654;2022-09-27T02:13:55;2.80;;;2.08;;
26335;SDS011;14047;50.936;4.654;2022-09-27T02:16:41;3.33;;;0.60;;
26335;SDS011;14047;50.936;4.654;2022-09-27T02:22:16;6.43;;;0.80;;
26335;SDS011;14047;50.936;4.654;2022-09-27T02:24:48;6.20;;;0.63;;
26335;SDS011;14047;50.936;4.654;2022-09-27T02:27:23;4.30;;;0.90;;
26335;SDS011;14047;50.936;4.654;2022-09-27T02:30:04;3.22;;;0.70;;
26335;SDS011;14047;50.936;4.654;2022-09-27T02:32:32;3.92;;;0.80;;
26335;SDS011;14047;50.936;4.654;2022-09-27T02:34:59;3.42;;;0.70;;
26335;SDS011;14047;50.936;4.654;2022-09-27T02:37:29;5.55;;;0.90;;
26335;SDS011;14047;50.936;4.654;2022-09-27T02:39:56;6.28;;;1.20;;
26335;SDS011;14047;50.936;4.654;2022-09-27T02:42:22;5.07;;;0.75;;
26335;SDS011;14047;50.936;4.654;2022-09-27T02:44:49;3.45;;;0.60;;
26335;SDS011;14047;50.936;4.654;2022-09-27T02:52:52;6.18;;;0.60;;
26335;SDS011;14047;50.936;4.654;2022-09-27T03:00:50;3.50;;;0.50;;
26335;SDS011;14047;50.936;4.654;2022-09-27T03:03:44;3.17;;;0.50;;
26335;SDS011;14047;50.936;4.654;2022-09-27T03:06:28;2.20;;;0.60;;
26335;SDS011;14047;50.936;4.654;2022-09-27T03:08:56;4.35;;;0.70;;
26335;SDS011;14047;50.936;4.654;2022-09-27T03:11:21;5.95;;;0.60;;
26335;SDS011;14047;50.936;4.654;2022-09-27T03:13:47;2.20;;;0.50;;
26335;SDS011;14047;50.936;4.654;2022-09-27T03:16:13;5.38;;;0.73;;
26335;SDS011;14047;50.936;4.654;2022-09-27T03:18:40;5.78;;;0.60;;
26335;SDS011;14047;50.936;4.654;2022-09-27T03:21:06;4.50;;;0.40;;
26335;SDS011;14047;50.936;4.654;2022-09-27T03:23:31;1.83;;;0.52;;
26335;SDS011;14047;50.936;4.654;2022-09-27T03:25:57;3.83;;;0.60;;
26335;SDS011;14047;50.936;4.654;2022-09-27T03:28:23;3.90;;;0.73;;
26335;SDS011;14047;50.936;4.654;2022-09-27T03:30:49;2.80;;;0.60;;
26335;SDS011;14047;50.936;4.654;2022-09-27T03:33:15;4.80;;;0.50;;
26335;SDS011;14047;50.936;4.654;2022-09-27T03:35:41;7.57;;;0.80;;
26335;SDS011;14047;50.936;4.654;2022-09-27T03:38:07;3.05;;;0.55;;
26335;SDS011;14047;50.936;4.654;2022-09-27T03:40:33;2.42;;;0.55;;
26335;SDS011;14047;50.936;4.654;2022-09-27T03:42:59;4.40;;;0.85;;
26335;SDS011;14047;50.936;4.654;2022-09-27T03:45:25;5.65;;;0.82;;
26335;SDS011;14047;50.936;4.654;2022-09-27T03:47:51;5.93;;;0.93;;
26335;SDS011;14047;50.936;4.654;2022-09-27T03:50:16;2.28;;;0.95;;
26335;SDS011;14047;50.936;4.654;2022-09-27T03:52:42;5.68;;;1.20;;
26335;SDS011;14047;50.936;4.654;2022-09-27T03:55:08;6.28;;;1.00;;
26335;SDS011;14047;50.936;4.654;2022-09-27T03:57:34;4.20;;;1.20;;
26335;SDS011;14047;50.936;4.654;2022-09-27T04:00:00;4.32;;;0.98;;
26335;SDS011;14047;50.936;4.654;2022-09-27T04:02:27;2.30;;;0.65;;
26335;SDS011;14047;50.936;4.654;2022-09-27T04:04:52;3.40;;;0.88;;
26335;SDS011;14047;50.936;4.654;2022-09-27T04:07:18;3.90;;;0.85;;
26335;SDS011;14047;50.936;4.654;2022-09-27T04:09:44;5.47;;;0.70;;
26335;SDS011;14047;50.936;4.654;2022-09-27T04:12:11;4.38;;;1.13;;
26335;SDS011;14047;50.936;4.654;2022-09-27T04:14:37;4.82;;;1.13;;
26335;SDS011;14047;50.936;4.654;2022-09-27T04:17:03;1.13;;;0.50;;
26335;SDS011;14047;50.936;4.654;2022-09-27T04:19:28;5.55;;;0.90;;
26335;SDS011;14047;50.936;4.654;2022-09-27T04:21:54;6.43;;;0.90;;
26335;SDS011;14047;50.936;4.654;2022-09-27T04:24:20;7.15;;;1.15;;
26335;SDS011;14047;50.936;4.654;2022-09-27T04:26:45;5.35;;;1.02;;
26335;SDS011;14047;50.936;4.654;2022-09-27T04:29:13;4.28;;;0.93;;
26335;SDS011;14047;50.936;4.654;2022-09-27T04:31:39;2.20;;;0.77;;
26335;SDS011;14047;50.936;4.654;2022-09-27T04:34:05;2.72;;;0.80;;
26335;SDS011;14047;50.936;4.654;2022-09-27T04:36:31;2.35;;;0.88;;
26335;SDS011;14047;50.936;4.654;2022-09-27T04:38:58;5.10;;;0.80;;
26335;SDS011;14047;50.936;4.654;2022-09-27T04:41:26;3.13;;;1.10;;
26335;SDS011;14047;50.936;4.654;2022-09-27T04:43:56;7.28;;;1.00;;
26335;SDS011;14047;50.936;4.654;2022-09-27T04:46:24;2.72;;;0.98;;
26335;SDS011;14047;50.936;4.654;2022-09-27T04:48:49;4.10;;;1.10;;
26335;SDS011;14047;50.936;4.654;2022-09-27T04:51:15;7.65;;;1.10;;
26335;SDS011;14047;50.936;4.654;2022-09-27T04:53:45;10.32;;;1.88;;
26335;SDS011;14047;50.936;4.654;2022-09-27T04:56:12;9.00;;;1.60;;
26335;SDS011;14047;50.936;4.654;2022-09-27T04:58:38;3.67;;;1.88;;
26335;SDS011;14047;50.936;4.654;2022-09-27T05:01:04;9.30;;;1.30;;
26335;SDS011;14047;50.936;4.654;2022-09-27T05:03:30;3.75;;;1.20;;
26335;SDS011;14047;50.936;4.654;2022-09-27T05:05:56;5.53;;;1.40;;
26335;SDS011;14047;50.936;4.654;2022-09-27T05:08:23;7.28;;;1.75;;
26335;SDS011;14047;50.936;4.654;2022-09-27T05:10:49;3.97;;;1.65;;
26335;SDS011;14047;50.936;4.654;2022-09-27T05:13:15;5.13;;;1.60;;
26335;SDS011;14047;50.936;4.654;2022-09-27T05:15:40;7.95;;;1.52;;
26335;SDS011;14047;50.936;4.654;2022-09-27T05:18:06;3.60;;;1.55;;
26335;SDS011;14047;50.936;4.654;2022-09-27T05:20:34;4.93;;;1.83;;
26335;SDS011;14047;50.936;4.654;2022-09-27T05:23:00;5.55;;;1.60;;
26335;SDS011;14047;50.936;4.654;2022-09-27T05:25:28;3.95;;;1.63;;
26335;SDS011;14047;50.936;4.654;2022-09-27T05:27:55;4.88;;;1.70;;
26335;SDS011;14047;50.936;4.654;2022-09-27T05:30:22;8.63;;;2.08;;
26335;SDS011;14047;50.936;4.654;2022-09-27T05:32:48;7.18;;;2.20;;
26335;SDS011;14047;50.936;4.654;2022-09-27T05:35:15;8.57;;;2.40;;
26335;SDS011;14047;50.936;4.654;2022-09-27T05:37:43;8.25;;;2.53;;
26335;SDS011;14047;50.936;4.654;2022-09-27T05:40:22;6.38;;;2.83;;
26335;SDS011;14047;50.936;4.654;2022-09-27T05:42:54;8.05;;;3.58;;
26335;SDS011;14047;50.936;4.654;2022-09-27T05:45:21;6.28;;;3.25;;
26335;SDS011;14047;50.936;4.654;2022-09-27T05:47:54;13.48;;;3.30;;
26335;SDS011;14047;50.936;4.654;2022-09-27T05:50:21;6.68;;;3.72;;
26335;SDS011;14047;50.936;4.654;2022-09-27T05:52:48;8.55;;;3.50;;
26335;SDS011;14047;50.936;4.654;2022-09-27T05:55:13;7.95;;;3.42;;
26335;SDS011;14047;50.936;4.654;2022-09-27T05:57:39;8.23;;;3.63;;
26335;SDS011;14047;50.936;4.654;2022-09-27T06:00:05;8.63;;;3.97;;
26335;SDS011;14047;50.936;4.654;2022-09-27T06:02:31;9.93;;;4.45;;
26335;SDS011;14047;50.936;4.654;2022-09-27T06:04:58;8.43;;;4.18;;
26335;SDS011;14047;50.936;4.654;2022-09-27T06:07:24;13.73;;;5.15;;
26335;SDS011;14047;50.936;4.654;2022-09-27T06:09:50;7.45;;;4.78;;
26335;SDS011;14047;50.936;4.654;2022-09-27T06:12:16;9.57;;;4.20;;
26335;SDS011;14047;50.936;4.654;2022-09-27T06:14:44;8.90;;;4.35;;
26335;SDS011;14047;50.936;4.654;2022-09-27T06:17:09;8.85;;;4.53;;
26335;SDS011;14047;50.936;4.654;2022-09-27T06:19:35;12.63;;;4.38;;
26335;SDS011;14047;50.936;4.654;2022-09-27T06:22:01;9.50;;;4.30;;
26335;SDS011;14047;50.936;4.654;2022-09-27T06:24:27;9.13;;;4.22;;
26335;SDS011;14047;50.936;4.654;2022-09-27T06:26:53;10.30;;;4.70;;
26335;SDS011;14047;50.936;4.654;2022-09-27T06:29:18;9.75;;;4.07;;
26335;SDS011;14047;50.936;4.654;2022-09-27T06:31:44;5.90;;;4.13;;
26335;SDS011;14047;50.936;4.654;2022-09-27T06:34:10;7.82;;;3.70;;
26335;SDS011;14047;50.936;4.654;2022-09-27T06:36:35;8.85;;;3.60;;
26335;SDS011;14047;50.936;4.654;2022-09-27T06:39:01;6.63;;;3.58;;
26335;SDS011;14047;50.936;4.654;2022-09-27T06:41:27;6.90;;;3.47;;
26335;SDS011;14047;50.936;4.654;2022-09-27T06:43:52;6.75;;;3.63;;
26335;SDS011;14047;50.936;4.654;2022-09-27T06:46:18;8.07;;;3.45;;
26335;SDS011;14047;50.936;4.654;2022-09-27T06:48:43;8.05;;;3.30;;
26335;SDS011;14047;50.936;4.654;2022-09-27T06:51:11;5.07;;;3.05;;
26335;SDS011;14047;50.936;4.654;2022-09-27T06:53:36;5.25;;;2.65;;
26335;SDS011;14047;50.936;4.654;2022-09-27T06:56:02;6.22;;;2.45;;
26335;SDS011;14047;50.936;4.654;2022-09-27T06:58:28;7.45;;;2.67;;
26335;SDS011;14047;50.936;4.654;2022-09-27T07:01:12;6.47;;;2.25;;
26335;SDS011;14047;50.936;4.654;2022-09-27T07:03:38;3.33;;;2.40;;
26335;SDS011;14047;50.936;4.654;2022-09-27T07:06:10;9.68;;;2.70;;
26335;SDS011;14047;50.936;4.654;2022-09-27T07:08:47;11.10;;;2.65;;
26335;SDS011;14047;50.936;4.654;2022-09-27T07:11:15;4.15;;;2.28;;
26335;SDS011;14047;50.936;4.654;2022-09-27T07:13:41;5.88;;;2.67;;
26335;SDS011;14047;50.936;4.654;2022-09-27T07:16:09;7.43;;;2.83;;
26335;SDS011;14047;50.936;4.654;2022-09-27T07:18:37;4.93;;;2.38;;
26335;SDS011;14047;50.936;4.654;2022-09-27T07:21:03;7.40;;;2.90;;
26335;SDS011;14047;50.936;4.654;2022-09-27T07:23:28;10.25;;;3.60;;
26335;SDS011;14047;50.936;4.654;2022-09-27T07:25:54;6.05;;;3.17;;
26335;SDS011;14047;50.936;4.654;2022-09-27T07:28:20;8.00;;;3.28;;
26335;SDS011;14047;50.936;4.654;2022-09-27T07:30:45;5.07;;;3.60;;
26335;SDS011;14047;50.936;4.654;2022-09-27T07:33:11;8.88;;;3.50;;
26335;SDS011;14047;50.936;4.654;2022-09-27T07:35:40;5.72;;;3.00;;
26335;SDS011;14047;50.936;4.654;2022-09-27T07:38:08;6.85;;;3.33;;
26335;SDS011;14047;50.936;4.654;2022-09-27T07:40:37;6.88;;;3.03;;
26335;SDS011;14047;50.936;4.654;2022-09-27T07:43:03;10.93;;;3.60;;
26335;SDS011;14047;50.936;4.654;2022-09-27T07:45:29;7.60;;;4.18;;
26335;SDS011;14047;50.936;4.654;2022-09-27T07:47:55;6.95;;;3.58;;
26335;SDS011;14047;50.936;4.654;2022-09-27T07:50:20;6.65;;;3.80;;
26335;SDS011;14047;50.936;4.654;2022-09-27T07:52:47;8.63;;;4.03;;
26335;SDS011;14047;50.936;4.654;2022-09-27T07:55:15;4.97;;;3.22;;
26335;SDS011;14047;50.936;4.654;2022-09-27T07:57:42;8.00;;;3.53;;
26335;SDS011;14047;50.936;4.654;2022-09-27T08:00:11;6.10;;;3.00;;
26335;SDS011;14047;50.936;4.654;2022-09-27T08:02:39;7.75;;;3.55;;
26335;SDS011;14047;50.936;4.654;2022-09-27T08:05:06;6.95;;;3.15;;
26335;SDS011;14047;50.936;4.654;2022-09-27T08:07:32;5.13;;;2.80;;
26335;SDS011;14047;50.936;4.654;2022-09-27T08:09:58;6.20;;;3.15;;
26335;SDS011;14047;50.936;4.654;2022-09-27T08:12:24;8.13;;;3.70;;
26335;SDS011;14047;50.936;4.654;2022-09-27T08:14:50;6.50;;;3.10;;
26335;SDS011;14047;50.936;4.654;2022-09-27T08:17:22;6.15;;;3.03;;
26335;SDS011;14047;50.936;4.654;2022-09-27T08:19:48;7.70;;;2.90;;
26335;SDS011;14047;50.936;4.654;2022-09-27T08:22:14;4.20;;;2.65;;
26335;SDS011;14047;50.936;4.654;2022-09-27T08:24:40;5.40;;;2.80;;
26335;SDS011;14047;50.936;4.654;2022-09-27T08:27:06;3.90;;;2.40;;
26335;SDS011;14047;50.936;4.654;2022-09-27T08:29:33;4.78;;;3.22;;
26335;SDS011;14047;50.936;4.654;2022-09-27T08:31:59;5.88;;;2.45;;
26335;SDS011;14047;50.936;4.654;2022-09-27T08:34:24;5.03;;;2.45;;
26335;SDS011;14047;50.936;4.654;2022-09-27T08:36:52;6.13;;;2.55;;
26335;SDS011;14047;50.936;4.654;2022-09-27T08:39:19;4.65;;;2.55;;
26335;SDS011;14047;50.936;4.654;2022-09-27T08:47:38;5.00;;;1.80;;
26335;SDS011;14047;50.936;4.654;2022-09-27T08:50:21;6.55;;;1.75;;
26335;SDS011;14047;50.936;4.654;2022-09-27T08:53:06;7.57;;;2.42;;
26335;SDS011;14047;50.936;4.654;2022-09-27T08:55:46;3.88;;;1.77;;
26335;SDS011;14047;50.936;4.654;2022-09-27T09:00:43;4.32;;;1.95;;
26335;SDS011;14047;50.936;4.654;2022-09-27T09:03:15;4.57;;;2.28;;
26335;SDS011;14047;50.936;4.654;2022-09-27T09:05:45;6.38;;;1.85;;
26335;SDS011;14047;50.936;4.654;2022-09-27T09:08:30;4.05;;;2.15;;
26335;SDS011;14047;50.936;4.654;2022-09-27T09:11:11;5.32;;;2.28;;
26335;SDS011;14047;50.936;4.654;2022-09-27T09:14:25;5.55;;;2.20;;
26335;SDS011;14047;50.936;4.654;2022-09-27T09:17:18;2.50;;;1.70;;
26335;SDS011;14047;50.936;4.654;2022-09-27T09:30:55;8.13;;;1.65;;
26335;SDS011;14047;50.936;4.654;2022-09-27T09:36:43;6.93;;;2.10;;
26335;SDS011;14047;50.936;4.654;2022-09-27T09:39:25;3.83;;;1.42;;
26335;SDS011;14047;50.936;4.654;2022-09-27T09:42:08;2.45;;;1.50;;
26335;SDS011;14047;50.936;4.654;2022-09-27T09:47:25;3.25;;;1.40;;
26335;SDS011;14047;50.936;4.654;2022-09-27T09:50:04;2.15;;;1.58;;
26335;SDS011;14047;50.936;4.654;2022-09-27T09:52:41;3.33;;;1.52;;
26335;SDS011;14047;50.936;4.654;2022-09-27T09:55:18;2.67;;;1.25;;
26335;SDS011;14047;50.936;4.654;2022-09-27T10:00:39;4.80;;;1.02;;
26335;SDS011;14047;50.936;4.654;2022-09-27T10:03:05;3.60;;;1.27;;
26335;SDS011;14047;50.936;4.654;2022-09-27T10:05:31;6.97;;;1.27;;
26335;SDS011;14047;50.936;4.654;2022-09-27T10:07:58;5.20;;;1.10;;
26335;SDS011;14047;50.936;4.654;2022-09-27T10:10:27;3.20;;;1.00;;
26335;SDS011;14047;50.936;4.654;2022-09-27T10:12:53;4.90;;;1.25;;
26335;SDS011;14047;50.936;4.654;2022-09-27T10:15:23;5.45;;;1.15;;
26335;SDS011;14047;50.936;4.654;2022-09-27T10:17:53;5.57;;;1.15;;
26335;SDS011;14047;50.936;4.654;2022-09-27T10:23:14;4.05;;;1.08;;
26335;SDS011;14047;50.936;4.654;2022-09-27T10:26:00;11.40;;;1.70;;
26335;SDS011;14047;50.936;4.654;2022-09-27T10:30:57;6.57;;;1.30;;
26335;SDS011;14047;50.936;4.654;2022-09-27T10:33:54;7.75;;;1.73;;
26335;SDS011;14047;50.936;4.654;2022-09-27T10:36:33;5.68;;;1.70;;
26335;SDS011;14047;50.936;4.654;2022-09-27T10:39:02;6.22;;;1.48;;
26335;SDS011;14047;50.936;4.654;2022-09-27T10:46:50;7.05;;;2.45;;
26335;SDS011;14047;50.936;4.654;2022-09-27T10:49:27;6.70;;;3.17;;
26335;SDS011;14047;50.936;4.654;2022-09-27T10:51:59;8.93;;;1.70;;
26335;SDS011;14047;50.936;4.654;2022-09-27T10:54:28;6.18;;;2.00;;
26335;SDS011;14047;50.936;4.654;2022-09-27T10:57:18;3.95;;;1.60;;
26335;SDS011;14047;50.936;4.654;2022-09-27T10:59:46;4.82;;;1.55;;
26335;SDS011;14047;50.936;4.654;2022-09-27T11:02:20;9.13;;;4.07;;
26335;SDS011;14047;50.936;4.654;2022-09-27T11:05:03;6.93;;;1.95;;
26335;SDS011;14047;50.936;4.654;2022-09-27T11:07:52;8.40;;;2.10;;
26335;SDS011;14047;50.936;4.654;2022-09-27T11:10:29;8.52;;;2.30;;
26335;SDS011;14047;50.936;4.654;2022-09-27T11:13:15;9.32;;;1.45;;
26335;SDS011;14047;50.936;4.654;2022-09-27T11:16:26;7.25;;;1.38;;
26335;SDS011;14047;50.936;4.654;2022-09-27T11:46:30;6.00;;;1.60;;
26335;SDS011;14047;50.936;4.654;2022-09-27T11:49:11;8.32;;;1.67;;
26335;SDS011;14047;50.936;4.654;2022-09-27T12:00:01;4.95;;;1.75;;
26335;SDS011;14047;50.936;4.654;2022-09-27T12:11:11;4.90;;;1.08;;
26335;SDS011;14047;50.936;4.654;2022-09-27T12:16:41;4.53;;;1.00;;
26335;SDS011;14047;50.936;4.654;2022-09-27T12:19:16;2.20;;;0.77;;
26335;SDS011;14047;50.936;4.654;2022-09-27T12:21:48;5.57;;;0.77;;
26335;SDS011;14047;50.936;4.654;2022-09-27T12:24:18;5.30;;;1.15;;
26335;SDS011;14047;50.936;4.654;2022-09-27T12:26:45;4.97;;;0.80;;
26335;SDS011;14047;50.936;4.654;2022-09-27T12:29:27;1.77;;;1.00;;
26335;SDS011;14047;50.936;4.654;2022-09-27T12:32:04;2.15;;;0.70;;
26335;SDS011;14047;50.936;4.654;2022-09-27T12:35:50;6.32;;;1.30;;
26335;SDS011;14047;50.936;4.654;2022-09-27T12:38:05;4.30;;;1.10;;
26335;SDS011;14047;50.936;4.654;2022-09-27T12:40:57;7.35;;;1.30;;
26335;SDS011;14047;50.936;4.654;2022-09-27T12:43:28;9.52;;;1.67;;
26335;SDS011;14047;50.936;4.654;2022-09-27T12:48:34;3.47;;;1.67;;
26335;SDS011;14047;50.936;4.654;2022-09-27T12:51:21;2.40;;;0.75;;
26335;SDS011;14047;50.936;4.654;2022-09-27T13:02:14;4.45;;;0.70;;
26335;SDS011;14047;50.936;4.654;2022-09-27T13:10:12;3.45;;;1.00;;
26335;SDS011;14047;50.936;4.654;2022-09-27T13:13:00;6.22;;;0.68;;
26335;SDS011;14047;50.936;4.654;2022-09-27T13:18:01;5.10;;;0.85;;
26335;SDS011;14047;50.936;4.654;2022-09-27T13:23:02;2.75;;;0.90;;
26335;SDS011;14047;50.936;4.654;2022-09-27T13:25:57;7.82;;;1.40;;
26335;SDS011;14047;50.936;4.654;2022-09-27T13:31:08;8.13;;;1.50;;
26335;SDS011;14047;50.936;4.654;2022-09-27T13:33:45;4.47;;;1.13;;
26335;SDS011;14047;50.936;4.654;2022-09-27T13:47:43;6.85;;;1.40;;
26335;SDS011;14047;50.936;4.654;2022-09-27T13:49:48;7.65;;;2.45;;
26335;SDS011;14047;50.936;4.654;2022-09-27T13:52:24;5.82;;;1.10;;
26335;SDS011;14047;50.936;4.654;2022-09-27T13:54:57;2.47;;;1.08;;
26335;SDS011;14047;50.936;4.654;2022-09-27T14:00:24;8.25;;;1.00;;
26335;SDS011;14047;50.936;4.654;2022-09-27T14:03:05;4.38;;;1.05;;
26335;SDS011;14047;50.936;4.654;2022-09-27T14:05:58;6.65;;;1.35;;
26335;SDS011;14047;50.936;4.654;2022-09-27T14:11:02;7.05;;;0.95;;
26335;SDS011;14047;50.936;4.654;2022-09-27T14:13:34;2.75;;;0.80;;
26335;SDS011;14047;50.936;4.654;2022-09-27T14:16:03;3.05;;;0.70;;
26335;SDS011;14047;50.936;4.654;2022-09-27T14:18:30;9.98;;;0.90;;
26335;SDS011;14047;50.936;4.654;2022-09-27T14:23:53;5.15;;;0.73;;
26335;SDS011;14047;50.936;4.654;2022-09-27T14:26:35;3.17;;;0.63;;
26335;SDS011;14047;50.936;4.654;2022-09-27T14:29:00;6.18;;;0.80;;
26335;SDS011;14047;50.936;4.654;2022-09-27T14:31:26;4.28;;;0.85;;
26335;SDS011;14047;50.936;4.654;2022-09-27T14:34:03;2.03;;;0.60;;
26335;SDS011;14047;50.936;4.654;2022-09-27T14:36:32;5.00;;;0.77;;
26335;SDS011;14047;50.936;4.654;2022-09-27T14:39:21;2.00;;;0.55;;
26335;SDS011;14047;50.936;4.654;2022-09-27T14:41:48;3.78;;;0.70;;
26335;SDS011;14047;50.936;4.654;2022-09-27T14:44:15;6.40;;;0.90;;
26335;SDS011;14047;50.936;4.654;2022-09-27T14:46:43;5.72;;;1.00;;
26335;SDS011;14047;50.936;4.654;2022-09-27T14:49:23;5.25;;;0.93;;
26335;SDS011;14047;50.936;4.654;2022-09-27T14:51:49;3.75;;;0.82;;
26335;SDS011;14047;50.936;4.654;2022-09-27T14:54:21;7.75;;;1.10;;
26335;SDS011;14047;50.936;4.654;2022-09-27T14:56:50;4.38;;;0.98;;
26335;SDS011;14047;50.936;4.654;2022-09-27T14:59:25;4.75;;;0.88;;
26335;SDS011;14047;50.936;4.654;2022-09-27T15:01:57;6.85;;;1.08;;
26335;SDS011;14047;50.936;4.654;2022-09-27T15:04:25;6.32;;;1.42;;
26335;SDS011;14047;50.936;4.654;2022-09-27T15:06:52;3.10;;;0.90;;
26335;SDS011;14047;50.936;4.654;2022-09-27T15:09:19;6.65;;;0.90;;
26335;SDS011;14047;50.936;4.654;2022-09-27T15:11:51;6.38;;;1.10;;
26335;SDS011;14047;50.936;4.654;2022-09-27T15:14:19;3.05;;;0.93;;
26335;SDS011;14047;50.936;4.654;2022-09-27T15:16:47;6.95;;;1.80;;
26335;SDS011;14047;50.936;4.654;2022-09-27T15:19:15;5.07;;;1.50;;
26335;SDS011;14047;50.936;4.654;2022-09-27T15:21:46;8.43;;;1.42;;
26335;SDS011;14047;50.936;4.654;2022-09-27T15:27:16;7.22;;;1.58;;
26335;SDS011;14047;50.936;4.654;2022-09-27T15:29:52;4.13;;;0.90;;
26335;SDS011;14047;50.936;4.654;2022-09-27T15:32:23;8.02;;;1.20;;
26335;SDS011;14047;50.936;4.654;2022-09-27T15:34:51;5.35;;;1.15;;
26335;SDS011;14047;50.936;4.654;2022-09-27T15:37:26;3.65;;;1.38;;
26335;SDS011;14047;50.936;4.654;2022-09-27T15:40:00;6.35;;;1.75;;
26335;SDS011;14047;50.936;4.654;2022-09-27T15:42:53;6.15;;;1.33;;
26335;SDS011;14047;50.936;4.654;2022-09-27T15:47:53;5.72;;;1.50;;
26335;SDS011;14047;50.936;4.654;2022-09-27T15:52:53;9.02;;;1.58;;
26335;SDS011;14047;50.936;4.654;2022-09-27T15:55:21;3.63;;;1.10;;
26335;SDS011;14047;50.936;4.654;2022-09-27T15:57:56;5.50;;;1.15;;
26335;SDS011;14047;50.936;4.654;2022-09-27T16:00:28;3.42;;;1.13;;
26335;SDS011;14047;50.936;4.654;2022-09-27T16:02:54;5.13;;;1.02;;
26335;SDS011;14047;50.936;4.654;2022-09-27T16:05:19;2.25;;;0.98;;
26335;SDS011;14047;50.936;4.654;2022-09-27T16:07:47;4.90;;;0.63;;
26335;SDS011;14047;50.936;4.654;2022-09-27T16:10:16;7.63;;;1.00;;
26335;SDS011;14047;50.936;4.654;2022-09-27T16:12:43;3.90;;;1.17;;
26335;SDS011;14047;50.936;4.654;2022-09-27T16:15:10;7.00;;;1.60;;
26335;SDS011;14047;50.936;4.654;2022-09-27T16:17:36;6.78;;;1.27;;
26335;SDS011;14047;50.936;4.654;2022-09-27T16:20:03;4.60;;;1.15;;
26335;SDS011;14047;50.936;4.654;2022-09-27T16:22:30;4.03;;;1.08;;
26335;SDS011;14047;50.936;4.654;2022-09-27T16:24:55;5.55;;;1.35;;
26335;SDS011;14047;50.936;4.654;2022-09-27T16:27:24;3.60;;;1.17;;
26335;SDS011;14047;50.936;4.654;2022-09-27T16:29:51;3.72;;;0.90;;
26335;SDS011;14047;50.936;4.654;2022-09-27T16:32:21;3.25;;;1.10;;
26335;SDS011;14047;50.936;4.654;2022-09-27T16:34:47;2.83;;;0.75;;
26335;SDS011;14047;50.936;4.654;2022-09-27T16:37:13;4.25;;;1.05;;
26335;SDS011;14047;50.936;4.654;2022-09-27T16:39:39;5.68;;;1.02;;
26335;SDS011;14047;50.936;4.654;2022-09-27T16:42:05;2.35;;;0.90;;
26335;SDS011;14047;50.936;4.654;2022-09-27T16:44:32;1.75;;;0.70;;
26335;SDS011;14047;50.936;4.654;2022-09-27T16:47:01;3.28;;;1.25;;
26335;SDS011;14047;50.936;4.654;2022-09-27T16:49:27;4.07;;;0.95;;
26335;SDS011;14047;50.936;4.654;2022-09-27T16:52:12;6.90;;;1.30;;
26335;SDS011;14047;50.936;4.654;2022-09-27T16:54:40;4.07;;;1.20;;
26335;SDS011;14047;50.936;4.654;2022-09-27T16:57:06;8.70;;;1.75;;
26335;SDS011;14047;50.936;4.654;2022-09-27T16:59:32;1.90;;;1.00;;
26335;SDS011;14047;50.936;4.654;2022-09-27T17:01:58;10.10;;;1.27;;
26335;SDS011;14047;50.936;4.654;2022-09-27T17:04:24;5.20;;;1.17;;
26335;SDS011;14047;50.936;4.654;2022-09-27T17:06:52;2.58;;;1.40;;
26335;SDS011;14047;50.936;4.654;2022-09-27T17:09:19;5.47;;;2.45;;
26335;SDS011;14047;50.936;4.654;2022-09-27T17:11:45;5.07;;;1.50;;
26335;SDS011;14047;50.936;4.654;2022-09-27T17:14:11;7.35;;;1.55;;
26335;SDS011;14047;50.936;4.654;2022-09-27T17:16:44;4.18;;;1.42;;
26335;SDS011;14047;50.936;4.654;2022-09-27T17:19:11;4.35;;;1.58;;
26335;SDS011;14047;50.936;4.654;2022-09-27T17:21:37;6.03;;;1.60;;
26335;SDS011;14047;50.936;4.654;2022-09-27T17:24:04;5.80;;;1.85;;
26335;SDS011;14047;50.936;4.654;2022-09-27T17:26:30;4.95;;;1.38;;
26335;SDS011;14047;50.936;4.654;2022-09-27T17:28:56;6.15;;;1.65;;
26335;SDS011;14047;50.936;4.654;2022-09-27T17:31:25;24.38;;;12.30;;
26335;SDS011;14047;50.936;4.654;2022-09-27T17:33:52;21.20;;;11.80;;
26335;SDS011;14047;50.936;4.654;2022-09-27T17:36:20;15.75;;;9.68;;
26335;SDS011;14047;50.936;4.654;2022-09-27T17:38:47;9.63;;;2.35;;
26335;SDS011;14047;50.936;4.654;2022-09-27T17:41:15;22.05;;;8.05;;
26335;SDS011;14047;50.936;4.654;2022-09-27T17:43:43;15.98;;;5.90;;
26335;SDS011;14047;50.936;4.654;2022-09-27T17:46:18;9.77;;;3.00;;
26335;SDS011;14047;50.936;4.654;2022-09-27T17:48:46;5.93;;;2.00;;
26335;SDS011;14047;50.936;4.654;2022-09-27T17:51:32;3.95;;;1.45;;
26335;SDS011;14047;50.936;4.654;2022-09-27T17:53:58;3.55;;;1.40;;
26335;SDS011;14047;50.936;4.654;2022-09-27T17:56:24;9.40;;;3.00;;
26335;SDS011;14047;50.936;4.654;2022-09-27T17:58:51;7.68;;;1.55;;
26335;SDS011;14047;50.936;4.654;2022-09-27T18:01:19;4.45;;;2.28;;
26335;SDS011;14047;50.936;4.654;2022-09-27T18:03:46;4.13;;;1.38;;
26335;SDS011;14047;50.936;4.654;2022-09-27T18:06:13;9.35;;;4.13;;
26335;SDS011;14047;50.936;4.654;2022-09-27T18:08:40;6.40;;;2.72;;
26335;SDS011;14047;50.936;4.654;2022-09-27T18:11:10;4.15;;;1.70;;